SCPU weather

Peulla Airport
Peulla, Los Lagos Region, Chile

Public forecast

Using degrees Celsius for public forecast. Weather courtesy of forecast.io.

Closest aviation weather report (METAR) to Peulla Airport

Closest report is San Carlos De Bariloche Airport, 38.9 nm (72.1 km) E. Retrieved 2020/08/04 02:00 UTC (16 minutes ago):

SAZS 040200Z 30014KT 9999 FEW025 05/02 Q1018

Closest aviation forecast (TAF) to Peulla Airport

Closest forecast is San Carlos De Bariloche Airport, 38.9 nm (72.1 km) E. Retrieved 2020-08-04 00:00 UTC (2 hours ago):

TAF SAZS 032300Z 0400/0424 29015KT 9999 BKN030 BKN100 TX07/0418Z TNM00/0412Z TEMPO 0400/0403 8000 SHRA BKN015 BKN050 BECMG 0402/0405 VRB03KT 9999 SCT020 BECMG 0411/0413 16005KT BKN015 TEMPO 0412/0418 7000 -RASN BKN010 BKN020